sensor_id;sensor_type;location;lat;lon;timestamp;P1;durP1;ratioP1;P2;durP2;ratioP2
56116;SDS011;41989;45.356;20.392;2024-03-08T00:00:58;28.67;;;20.52;;
56116;SDS011;41989;45.356;20.392;2024-03-08T00:03:24;23.73;;;18.00;;
56116;SDS011;41989;45.356;20.392;2024-03-08T00:05:50;24.00;;;17.92;;
56116;SDS011;41989;45.356;20.392;2024-03-08T00:08:17;24.98;;;19.30;;
56116;SDS011;41989;45.356;20.392;2024-03-08T00:10:43;24.50;;;18.23;;
56116;SDS011;41989;45.356;20.392;2024-03-08T00:13:09;22.27;;;17.80;;
56116;SDS011;41989;45.356;20.392;2024-03-08T00:15:35;23.35;;;18.20;;
56116;SDS011;41989;45.356;20.392;2024-03-08T00:18:01;21.15;;;16.95;;
56116;SDS011;41989;45.356;20.392;2024-03-08T00:20:27;23.33;;;18.65;;
56116;SDS011;41989;45.356;20.392;2024-03-08T00:22:54;21.60;;;16.23;;
56116;SDS011;41989;45.356;20.392;2024-03-08T00:25:23;21.27;;;15.25;;
56116;SDS011;41989;45.356;20.392;2024-03-08T00:27:49;18.17;;;14.48;;
56116;SDS011;41989;45.356;20.392;2024-03-08T00:30:15;21.95;;;16.27;;
56116;SDS011;41989;45.356;20.392;2024-03-08T00:32:41;18.13;;;14.02;;
56116;SDS011;41989;45.356;20.392;2024-03-08T00:35:08;21.15;;;15.13;;
56116;SDS011;41989;45.356;20.392;2024-03-08T00:37:34;19.70;;;14.63;;
56116;SDS011;41989;45.356;20.392;2024-03-08T00:40:00;22.23;;;15.50;;
56116;SDS011;41989;45.356;20.392;2024-03-08T00:42:26;22.33;;;16.23;;
56116;SDS011;41989;45.356;20.392;2024-03-08T00:44:52;19.35;;;14.93;;
56116;SDS011;41989;45.356;20.392;2024-03-08T00:47:19;19.65;;;15.88;;
56116;SDS011;41989;45.356;20.392;2024-03-08T00:49:45;20.70;;;15.63;;
56116;SDS011;41989;45.356;20.392;2024-03-08T00:52:12;19.50;;;16.15;;
56116;SDS011;41989;45.356;20.392;2024-03-08T00:54:38;21.92;;;16.58;;
56116;SDS011;41989;45.356;20.392;2024-03-08T00:57:04;20.95;;;16.73;;
56116;SDS011;41989;45.356;20.392;2024-03-08T00:59:31;23.20;;;16.98;;
56116;SDS011;41989;45.356;20.392;2024-03-08T01:02:01;22.17;;;16.38;;
56116;SDS011;41989;45.356;20.392;2024-03-08T01:04:27;19.10;;;14.15;;
56116;SDS011;41989;45.356;20.392;2024-03-08T01:06:57;20.40;;;15.23;;
56116;SDS011;41989;45.356;20.392;2024-03-08T01:09:26;20.58;;;16.20;;
56116;SDS011;41989;45.356;20.392;2024-03-08T01:11:53;21.50;;;15.52;;
56116;SDS011;41989;45.356;20.392;2024-03-08T01:14:19;25.05;;;17.10;;
56116;SDS011;41989;45.356;20.392;2024-03-08T01:16:47;25.05;;;17.65;;
56116;SDS011;41989;45.356;20.392;2024-03-08T01:19:14;28.05;;;17.63;;
56116;SDS011;41989;45.356;20.392;2024-03-08T01:21:40;30.35;;;18.92;;
56116;SDS011;41989;45.356;20.392;2024-03-08T01:24:07;25.70;;;17.25;;
56116;SDS011;41989;45.356;20.392;2024-03-08T01:26:33;31.73;;;21.13;;
56116;SDS011;41989;45.356;20.392;2024-03-08T01:29:00;26.67;;;17.92;;
56116;SDS011;41989;45.356;20.392;2024-03-08T01:31:28;24.88;;;16.70;;
56116;SDS011;41989;45.356;20.392;2024-03-08T01:33:55;24.10;;;16.52;;
56116;SDS011;41989;45.356;20.392;2024-03-08T01:36:21;26.65;;;17.52;;
56116;SDS011;41989;45.356;20.392;2024-03-08T01:38:47;23.42;;;16.83;;
56116;SDS011;41989;45.356;20.392;2024-03-08T01:41:13;26.65;;;17.55;;
56116;SDS011;41989;45.356;20.392;2024-03-08T01:43:41;23.55;;;16.00;;
56116;SDS011;41989;45.356;20.392;2024-03-08T01:46:07;24.20;;;15.60;;
56116;SDS011;41989;45.356;20.392;2024-03-08T01:48:35;23.30;;;16.42;;
56116;SDS011;41989;45.356;20.392;2024-03-08T01:51:01;24.17;;;17.33;;
56116;SDS011;41989;45.356;20.392;2024-03-08T01:53:27;19.45;;;14.50;;
56116;SDS011;41989;45.356;20.392;2024-03-08T01:55:56;19.48;;;15.02;;
56116;SDS011;41989;45.356;20.392;2024-03-08T01:58:23;19.52;;;14.13;;
56116;SDS011;41989;45.356;20.392;2024-03-08T02:00:49;21.73;;;16.33;;
56116;SDS011;41989;45.356;20.392;2024-03-08T02:03:16;20.70;;;15.05;;
56116;SDS011;41989;45.356;20.392;2024-03-08T02:05:42;21.05;;;13.98;;
56116;SDS011;41989;45.356;20.392;2024-03-08T02:08:08;20.20;;;14.75;;
56116;SDS011;41989;45.356;20.392;2024-03-08T02:10:40;21.15;;;14.07;;
56116;SDS011;41989;45.356;20.392;2024-03-08T02:13:07;20.90;;;14.80;;
56116;SDS011;41989;45.356;20.392;2024-03-08T02:18:19;20.13;;;14.25;;
56116;SDS011;41989;45.356;20.392;2024-03-08T02:20:46;22.85;;;16.30;;
56116;SDS011;41989;45.356;20.392;2024-03-08T02:23:13;18.92;;;13.57;;
56116;SDS011;41989;45.356;20.392;2024-03-08T02:25:39;20.60;;;14.95;;
56116;SDS011;41989;45.356;20.392;2024-03-08T02:28:10;19.42;;;15.20;;
56116;SDS011;41989;45.356;20.392;2024-03-08T02:30:37;19.63;;;13.85;;
56116;SDS011;41989;45.356;20.392;2024-03-08T02:33:04;23.33;;;13.88;;
56116;SDS011;41989;45.356;20.392;2024-03-08T02:35:30;23.08;;;16.13;;
56116;SDS011;41989;45.356;20.392;2024-03-08T02:37:56;21.75;;;16.98;;
56116;SDS011;41989;45.356;20.392;2024-03-08T02:40:23;26.65;;;17.83;;
56116;SDS011;41989;45.356;20.392;2024-03-08T02:42:49;27.75;;;18.50;;
56116;SDS011;41989;45.356;20.392;2024-03-08T02:45:15;26.05;;;17.80;;
56116;SDS011;41989;45.356;20.392;2024-03-08T02:47:42;22.95;;;16.58;;
56116;SDS011;41989;45.356;20.392;2024-03-08T02:50:08;21.63;;;15.60;;
56116;SDS011;41989;45.356;20.392;2024-03-08T02:52:34;26.58;;;16.30;;
56116;SDS011;41989;45.356;20.392;2024-03-08T02:55:01;23.45;;;16.27;;
56116;SDS011;41989;45.356;20.392;2024-03-08T02:57:27;23.90;;;17.08;;
56116;SDS011;41989;45.356;20.392;2024-03-08T02:59:53;25.95;;;17.73;;
56116;SDS011;41989;45.356;20.392;2024-03-08T03:02:19;25.55;;;17.33;;
56116;SDS011;41989;45.356;20.392;2024-03-08T03:04:48;23.65;;;16.60;;
56116;SDS011;41989;45.356;20.392;2024-03-08T03:07:14;26.55;;;18.63;;
56116;SDS011;41989;45.356;20.392;2024-03-08T03:09:40;26.05;;;17.85;;
56116;SDS011;41989;45.356;20.392;2024-03-08T03:12:06;27.10;;;18.58;;
56116;SDS011;41989;45.356;20.392;2024-03-08T03:14:36;28.42;;;19.33;;
56116;SDS011;41989;45.356;20.392;2024-03-08T03:17:05;31.05;;;19.13;;
56116;SDS011;41989;45.356;20.392;2024-03-08T03:19:32;31.42;;;19.70;;
56116;SDS011;41989;45.356;20.392;2024-03-08T03:21:58;30.20;;;19.98;;
56116;SDS011;41989;45.356;20.392;2024-03-08T03:24:24;29.58;;;20.85;;
56116;SDS011;41989;45.356;20.392;2024-03-08T03:26:54;32.72;;;20.98;;
56116;SDS011;41989;45.356;20.392;2024-03-08T03:29:20;33.35;;;20.15;;
56116;SDS011;41989;45.356;20.392;2024-03-08T03:31:46;37.42;;;22.27;;
56116;SDS011;41989;45.356;20.392;2024-03-08T03:34:13;35.35;;;22.42;;
56116;SDS011;41989;45.356;20.392;2024-03-08T03:36:40;34.58;;;22.77;;
56116;SDS011;41989;45.356;20.392;2024-03-08T03:39:10;38.58;;;25.35;;
56116;SDS011;41989;45.356;20.392;2024-03-08T03:41:41;35.45;;;24.17;;
56116;SDS011;41989;45.356;20.392;2024-03-08T03:44:10;37.47;;;25.10;;
56116;SDS011;41989;45.356;20.392;2024-03-08T03:46:37;35.38;;;22.90;;
56116;SDS011;41989;45.356;20.392;2024-03-08T03:49:03;36.85;;;23.05;;
56116;SDS011;41989;45.356;20.392;2024-03-08T03:51:29;36.97;;;24.35;;
56116;SDS011;41989;45.356;20.392;2024-03-08T03:53:55;38.60;;;23.13;;
56116;SDS011;41989;45.356;20.392;2024-03-08T03:56:25;34.85;;;23.80;;
56116;SDS011;41989;45.356;20.392;2024-03-08T03:58:52;35.75;;;24.83;;
56116;SDS011;41989;45.356;20.392;2024-03-08T04:01:18;34.80;;;23.90;;
56116;SDS011;41989;45.356;20.392;2024-03-08T04:03:44;38.40;;;24.27;;
56116;SDS011;41989;45.356;20.392;2024-03-08T04:06:11;41.63;;;26.75;;
56116;SDS011;41989;45.356;20.392;2024-03-08T04:08:37;40.92;;;25.30;;
56116;SDS011;41989;45.356;20.392;2024-03-08T04:11:03;38.97;;;24.17;;
56116;SDS011;41989;45.356;20.392;2024-03-08T04:13:29;39.25;;;26.95;;
56116;SDS011;41989;45.356;20.392;2024-03-08T04:15:55;33.55;;;23.65;;
56116;SDS011;41989;45.356;20.392;2024-03-08T04:18:21;38.35;;;23.33;;
56116;SDS011;41989;45.356;20.392;2024-03-08T04:20:48;38.42;;;22.58;;
56116;SDS011;41989;45.356;20.392;2024-03-08T04:23:14;36.03;;;23.25;;
56116;SDS011;41989;45.356;20.392;2024-03-08T04:25:41;41.72;;;25.13;;
56116;SDS011;41989;45.356;20.392;2024-03-08T04:28:08;40.08;;;26.30;;
56116;SDS011;41989;45.356;20.392;2024-03-08T04:30:37;40.40;;;24.80;;
56116;SDS011;41989;45.356;20.392;2024-03-08T04:33:04;39.80;;;25.20;;
56116;SDS011;41989;45.356;20.392;2024-03-08T04:35:34;39.78;;;24.95;;
56116;SDS011;41989;45.356;20.392;2024-03-08T04:38:00;41.20;;;25.05;;
56116;SDS011;41989;45.356;20.392;2024-03-08T04:40:26;34.17;;;20.25;;
56116;SDS011;41989;45.356;20.392;2024-03-08T04:42:52;29.10;;;20.25;;
56116;SDS011;41989;45.356;20.392;2024-03-08T04:45:19;34.72;;;21.45;;
56116;SDS011;41989;45.356;20.392;2024-03-08T04:47:45;36.60;;;22.98;;
56116;SDS011;41989;45.356;20.392;2024-03-08T04:50:11;36.97;;;22.92;;
56116;SDS011;41989;45.356;20.392;2024-03-08T04:52:37;33.10;;;21.77;;
56116;SDS011;41989;45.356;20.392;2024-03-08T04:55:04;32.38;;;20.33;;
56116;SDS011;41989;45.356;20.392;2024-03-08T04:57:30;30.95;;;19.60;;
56116;SDS011;41989;45.356;20.392;2024-03-08T04:59:57;32.72;;;20.10;;
56116;SDS011;41989;45.356;20.392;2024-03-08T05:02:24;29.38;;;19.02;;
56116;SDS011;41989;45.356;20.392;2024-03-08T05:04:50;33.63;;;22.63;;
56116;SDS011;41989;45.356;20.392;2024-03-08T05:07:17;29.58;;;19.73;;
56116;SDS011;41989;45.356;20.392;2024-03-08T05:09:44;28.48;;;19.35;;
56116;SDS011;41989;45.356;20.392;2024-03-08T05:12:16;30.15;;;18.85;;
56116;SDS011;41989;45.356;20.392;2024-03-08T05:14:42;30.40;;;19.85;;
56116;SDS011;41989;45.356;20.392;2024-03-08T05:17:08;26.73;;;18.00;;
56116;SDS011;41989;45.356;20.392;2024-03-08T05:19:35;31.85;;;19.98;;
56116;SDS011;41989;45.356;20.392;2024-03-08T05:22:02;29.13;;;17.63;;
56116;SDS011;41989;45.356;20.392;2024-03-08T05:24:28;43.15;;;24.45;;
56116;SDS011;41989;45.356;20.392;2024-03-08T05:26:58;33.08;;;21.45;;
56116;SDS011;41989;45.356;20.392;2024-03-08T05:29:28;36.60;;;20.95;;
56116;SDS011;41989;45.356;20.392;2024-03-08T05:31:54;33.08;;;19.20;;
56116;SDS011;41989;45.356;20.392;2024-03-08T05:34:22;30.17;;;18.75;;
56116;SDS011;41989;45.356;20.392;2024-03-08T05:36:49;28.50;;;18.38;;
56116;SDS011;41989;45.356;20.392;2024-03-08T05:39:16;28.23;;;19.52;;
56116;SDS011;41989;45.356;20.392;2024-03-08T05:41:43;31.67;;;18.75;;
56116;SDS011;41989;45.356;20.392;2024-03-08T05:44:09;28.92;;;18.70;;
56116;SDS011;41989;45.356;20.392;2024-03-08T05:46:36;32.40;;;19.60;;
56116;SDS011;41989;45.356;20.392;2024-03-08T05:49:03;31.77;;;19.13;;
56116;SDS011;41989;45.356;20.392;2024-03-08T05:51:33;28.40;;;18.02;;
56116;SDS011;41989;45.356;20.392;2024-03-08T05:54:03;32.25;;;19.15;;
56116;SDS011;41989;45.356;20.392;2024-03-08T05:56:30;29.70;;;19.52;;
56116;SDS011;41989;45.356;20.392;2024-03-08T05:58:57;28.27;;;18.42;;
56116;SDS011;41989;45.356;20.392;2024-03-08T06:01:24;33.80;;;20.50;;
56116;SDS011;41989;45.356;20.392;2024-03-08T06:03:51;32.38;;;21.38;;
56116;SDS011;41989;45.356;20.392;2024-03-08T06:06:19;30.60;;;19.45;;
56116;SDS011;41989;45.356;20.392;2024-03-08T06:08:46;30.23;;;20.00;;
56116;SDS011;41989;45.356;20.392;2024-03-08T06:11:14;30.50;;;19.08;;
56116;SDS011;41989;45.356;20.392;2024-03-08T06:13:40;33.15;;;20.67;;
56116;SDS011;41989;45.356;20.392;2024-03-08T06:16:06;30.77;;;21.38;;
56116;SDS011;41989;45.356;20.392;2024-03-08T06:18:33;32.40;;;20.83;;
56116;SDS011;41989;45.356;20.392;2024-03-08T06:21:02;31.60;;;19.25;;
56116;SDS011;41989;45.356;20.392;2024-03-08T06:23:30;29.85;;;19.00;;
56116;SDS011;41989;45.356;20.392;2024-03-08T06:25:56;29.95;;;18.13;;
56116;SDS011;41989;45.356;20.392;2024-03-08T06:28:23;29.42;;;18.80;;
56116;SDS011;41989;45.356;20.392;2024-03-08T06:30:49;28.67;;;18.60;;
56116;SDS011;41989;45.356;20.392;2024-03-08T06:33:16;30.60;;;19.58;;
56116;SDS011;41989;45.356;20.392;2024-03-08T06:35:43;35.35;;;18.80;;
56116;SDS011;41989;45.356;20.392;2024-03-08T06:38:09;31.67;;;19.85;;
56116;SDS011;41989;45.356;20.392;2024-03-08T06:40:36;28.58;;;17.88;;
56116;SDS011;41989;45.356;20.392;2024-03-08T06:43:03;27.25;;;18.98;;
56116;SDS011;41989;45.356;20.392;2024-03-08T06:45:32;27.42;;;18.25;;
56116;SDS011;41989;45.356;20.392;2024-03-08T06:47:58;26.80;;;17.25;;
56116;SDS011;41989;45.356;20.392;2024-03-08T06:50:25;31.83;;;18.92;;
56116;SDS011;41989;45.356;20.392;2024-03-08T06:52:51;31.25;;;19.92;;
56116;SDS011;41989;45.356;20.392;2024-03-08T06:55:21;33.70;;;21.10;;
56116;SDS011;41989;45.356;20.392;2024-03-08T06:57:47;28.55;;;18.02;;
56116;SDS011;41989;45.356;20.392;2024-03-08T07:00:13;29.17;;;18.98;;
56116;SDS011;41989;45.356;20.392;2024-03-08T07:02:46;27.03;;;17.37;;
56116;SDS011;41989;45.356;20.392;2024-03-08T07:05:14;26.90;;;17.83;;
56116;SDS011;41989;45.356;20.392;2024-03-08T07:07:41;24.50;;;15.95;;
56116;SDS011;41989;45.356;20.392;2024-03-08T07:10:08;28.08;;;18.63;;
56116;SDS011;41989;45.356;20.392;2024-03-08T07:12:36;27.58;;;17.95;;
56116;SDS011;41989;45.356;20.392;2024-03-08T07:15:04;23.75;;;16.77;;
56116;SDS011;41989;45.356;20.392;2024-03-08T07:17:30;24.17;;;15.63;;
56116;SDS011;41989;45.356;20.392;2024-03-08T07:19:59;27.58;;;17.63;;
56116;SDS011;41989;45.356;20.392;2024-03-08T07:22:32;27.58;;;18.88;;
56116;SDS011;41989;45.356;20.392;2024-03-08T07:24:58;27.02;;;18.05;;
56116;SDS011;41989;45.356;20.392;2024-03-08T07:27:43;28.65;;;17.25;;
56116;SDS011;41989;45.356;20.392;2024-03-08T07:30:11;24.08;;;16.65;;
56116;SDS011;41989;45.356;20.392;2024-03-08T07:32:37;24.35;;;15.27;;
56116;SDS011;41989;45.356;20.392;2024-03-08T07:35:03;27.13;;;18.17;;
56116;SDS011;41989;45.356;20.392;2024-03-08T07:37:30;27.02;;;18.30;;
56116;SDS011;41989;45.356;20.392;2024-03-08T07:39:56;29.40;;;18.33;;
56116;SDS011;41989;45.356;20.392;2024-03-08T07:42:23;30.88;;;18.90;;
56116;SDS011;41989;45.356;20.392;2024-03-08T07:44:49;24.27;;;17.35;;
56116;SDS011;41989;45.356;20.392;2024-03-08T07:47:16;26.27;;;17.35;;
56116;SDS011;41989;45.356;20.392;2024-03-08T07:49:43;26.20;;;16.45;;
56116;SDS011;41989;45.356;20.392;2024-03-08T07:52:09;23.63;;;16.98;;
56116;SDS011;41989;45.356;20.392;2024-03-08T07:54:40;26.60;;;16.92;;
56116;SDS011;41989;45.356;20.392;2024-03-08T07:57:06;24.75;;;15.52;;
56116;SDS011;41989;45.356;20.392;2024-03-08T07:59:33;26.30;;;17.05;;
56116;SDS011;41989;45.356;20.392;2024-03-08T08:01:59;29.17;;;18.58;;
56116;SDS011;41989;45.356;20.392;2024-03-08T08:04:25;25.30;;;16.92;;
56116;SDS011;41989;45.356;20.392;2024-03-08T08:06:52;29.65;;;18.27;;
56116;SDS011;41989;45.356;20.392;2024-03-08T08:09:20;29.13;;;18.95;;
56116;SDS011;41989;45.356;20.392;2024-03-08T08:11:59;28.45;;;19.15;;
56116;SDS011;41989;45.356;20.392;2024-03-08T08:14:28;36.25;;;21.92;;
56116;SDS011;41989;45.356;20.392;2024-03-08T08:16:54;30.90;;;19.83;;
56116;SDS011;41989;45.356;20.392;2024-03-08T08:19:22;31.75;;;19.75;;
56116;SDS011;41989;45.356;20.392;2024-03-08T08:21:48;29.45;;;18.70;;
56116;SDS011;41989;45.356;20.392;2024-03-08T08:24:15;27.23;;;18.63;;
56116;SDS011;41989;45.356;20.392;2024-03-08T08:26:41;30.63;;;19.30;;
56116;SDS011;41989;45.356;20.392;2024-03-08T08:29:09;30.25;;;19.13;;
56116;SDS011;41989;45.356;20.392;2024-03-08T08:31:35;32.05;;;19.27;;
56116;SDS011;41989;45.356;20.392;2024-03-08T08:34:01;28.60;;;17.17;;
56116;SDS011;41989;45.356;20.392;2024-03-08T08:36:28;30.35;;;18.98;;
56116;SDS011;41989;45.356;20.392;2024-03-08T08:38:55;31.33;;;20.30;;
56116;SDS011;41989;45.356;20.392;2024-03-08T08:41:24;32.47;;;19.10;;
56116;SDS011;41989;45.356;20.392;2024-03-08T08:43:51;35.28;;;21.42;;
56116;SDS011;41989;45.356;20.392;2024-03-08T08:46:18;32.67;;;19.20;;
56116;SDS011;41989;45.356;20.392;2024-03-08T08:48:44;30.13;;;19.17;;
56116;SDS011;41989;45.356;20.392;2024-03-08T08:51:12;31.20;;;18.33;;
56116;SDS011;41989;45.356;20.392;2024-03-08T08:53:38;29.88;;;19.45;;
56116;SDS011;41989;45.356;20.392;2024-03-08T08:56:08;30.00;;;18.88;;
56116;SDS011;41989;45.356;20.392;2024-03-08T08:58:34;33.22;;;21.02;;
56116;SDS011;41989;45.356;20.392;2024-03-08T09:01:00;31.00;;;19.35;;
56116;SDS011;41989;45.356;20.392;2024-03-08T09:03:26;33.65;;;20.05;;
56116;SDS011;41989;45.356;20.392;2024-03-08T09:05:54;36.25;;;20.42;;
56116;SDS011;41989;45.356;20.392;2024-03-08T09:08:21;33.55;;;20.27;;
56116;SDS011;41989;45.356;20.392;2024-03-08T09:10:48;27.83;;;17.42;;
56116;SDS011;41989;45.356;20.392;2024-03-08T09:13:14;31.15;;;20.02;;
56116;SDS011;41989;45.356;20.392;2024-03-08T09:15:42;33.33;;;20.00;;
56116;SDS011;41989;45.356;20.392;2024-03-08T09:18:09;33.95;;;21.42;;
56116;SDS011;41989;45.356;20.392;2024-03-08T09:20:35;35.35;;;19.75;;
56116;SDS011;41989;45.356;20.392;2024-03-08T09:23:02;33.50;;;20.13;;
56116;SDS011;41989;45.356;20.392;2024-03-08T09:25:29;35.28;;;21.60;;
56116;SDS011;41989;45.356;20.392;2024-03-08T09:27:55;31.05;;;20.30;;
56116;SDS011;41989;45.356;20.392;2024-03-08T09:30:22;28.73;;;17.85;;
56116;SDS011;41989;45.356;20.392;2024-03-08T09:32:49;29.33;;;18.85;;
56116;SDS011;41989;45.356;20.392;2024-03-08T09:35:16;32.10;;;20.95;;
56116;SDS011;41989;45.356;20.392;2024-03-08T09:37:42;33.75;;;21.40;;
56116;SDS011;41989;45.356;20.392;2024-03-08T09:40:13;29.90;;;17.27;;
56116;SDS011;41989;45.356;20.392;2024-03-08T09:42:43;33.03;;;20.40;;
56116;SDS011;41989;45.356;20.392;2024-03-08T09:45:10;32.22;;;21.23;;
56116;SDS011;41989;45.356;20.392;2024-03-08T09:47:40;35.35;;;21.98;;
56116;SDS011;41989;45.356;20.392;2024-03-08T09:50:07;30.27;;;19.35;;
56116;SDS011;41989;45.356;20.392;2024-03-08T09:52:41;25.40;;;16.70;;
56116;SDS011;41989;45.356;20.392;2024-03-08T09:55:10;26.55;;;18.08;;
56116;SDS011;41989;45.356;20.392;2024-03-08T09:57:37;33.25;;;20.10;;
56116;SDS011;41989;45.356;20.392;2024-03-08T10:00:06;31.67;;;19.80;;
56116;SDS011;41989;45.356;20.392;2024-03-08T10:03:02;28.10;;;18.48;;
56116;SDS011;41989;45.356;20.392;2024-03-08T10:05:32;28.20;;;17.80;;
56116;SDS011;41989;45.356;20.392;2024-03-08T10:07:58;28.90;;;18.40;;
56116;SDS011;41989;45.356;20.392;2024-03-08T10:10:24;30.00;;;19.52;;
56116;SDS011;41989;45.356;20.392;2024-03-08T10:12:51;27.58;;;18.08;;
56116;SDS011;41989;45.356;20.392;2024-03-08T10:15:17;32.15;;;18.98;;
56116;SDS011;41989;45.356;20.392;2024-03-08T10:17:45;29.23;;;19.35;;
56116;SDS011;41989;45.356;20.392;2024-03-08T10:20:15;25.92;;;16.70;;
56116;SDS011;41989;45.356;20.392;2024-03-08T10:22:41;29.55;;;19.35;;
56116;SDS011;41989;45.356;20.392;2024-03-08T10:25:10;28.23;;;17.88;;
56116;SDS011;41989;45.356;20.392;2024-03-08T10:27:37;32.30;;;19.92;;
56116;SDS011;41989;45.356;20.392;2024-03-08T10:30:05;31.30;;;19.77;;
56116;SDS011;41989;45.356;20.392;2024-03-08T10:32:33;34.95;;;21.25;;
56116;SDS011;41989;45.356;20.392;2024-03-08T10:34:59;30.63;;;20.27;;
56116;SDS011;41989;45.356;20.392;2024-03-08T10:37:28;32.20;;;20.45;;
56116;SDS011;41989;45.356;20.392;2024-03-08T10:40:04;27.20;;;18.70;;
56116;SDS011;41989;45.356;20.392;2024-03-08T10:42:40;29.83;;;18.90;;
56116;SDS011;41989;45.356;20.392;2024-03-08T10:47:41;32.55;;;20.35;;
56116;SDS011;41989;45.356;20.392;2024-03-08T10:50:17;28.77;;;20.38;;
56116;SDS011;41989;45.356;20.392;2024-03-08T10:52:50;32.90;;;21.30;;
56116;SDS011;41989;45.356;20.392;2024-03-08T10:55:19;29.85;;;20.35;;
56116;SDS011;41989;45.356;20.392;2024-03-08T10:57:46;30.98;;;19.20;;
56116;SDS011;41989;45.356;20.392;2024-03-08T11:00:13;29.38;;;18.52;;
56116;SDS011;41989;45.356;20.392;2024-03-08T11:02:43;30.80;;;20.15;;
56116;SDS011;41989;45.356;20.392;2024-03-08T11:05:30;33.60;;;20.53;;
56116;SDS011;41989;45.356;20.392;2024-03-08T11:08:01;29.65;;;19.67;;
56116;SDS011;41989;45.356;20.392;2024-03-08T11:10:27;30.95;;;19.95;;
56116;SDS011;41989;45.356;20.392;2024-03-08T11:12:53;29.65;;;19.38;;
56116;SDS011;41989;45.356;20.392;2024-03-08T11:15:20;31.08;;;17.75;;
56116;SDS011;41989;45.356;20.392;2024-03-08T11:17:49;29.23;;;19.55;;
56116;SDS011;41989;45.356;20.392;2024-03-08T11:20:16;29.43;;;19.63;;
56116;SDS011;41989;45.356;20.392;2024-03-08T11:25:40;29.42;;;19.48;;
56116;SDS011;41989;45.356;20.392;2024-03-08T11:28:12;28.33;;;19.27;;
56116;SDS011;41989;45.356;20.392;2024-03-08T11:30:42;28.67;;;19.25;;
56116;SDS011;41989;45.356;20.392;2024-03-08T11:33:11;30.65;;;18.60;;
56116;SDS011;41989;45.356;20.392;2024-03-08T11:35:37;32.17;;;20.58;;
56116;SDS011;41989;45.356;20.392;2024-03-08T11:38:07;33.55;;;20.60;;
56116;SDS011;41989;45.356;20.392;2024-03-08T11:40:33;28.52;;;19.20;;
56116;SDS011;41989;45.356;20.392;2024-03-08T11:43:00;27.17;;;17.38;;
56116;SDS011;41989;45.356;20.392;2024-03-08T11:45:29;29.15;;;19.17;;
56116;SDS011;41989;45.356;20.392;2024-03-08T11:47:55;32.22;;;20.45;;
56116;SDS011;41989;45.356;20.392;2024-03-08T11:50:24;30.33;;;20.30;;
56116;SDS011;41989;45.356;20.392;2024-03-08T11:52:51;31.27;;;20.83;;
56116;SDS011;41989;45.356;20.392;2024-03-08T11:55:17;26.85;;;17.63;;
56116;SDS011;41989;45.356;20.392;2024-03-08T11:57:44;28.77;;;19.77;;
56116;SDS011;41989;45.356;20.392;2024-03-08T12:00:19;31.98;;;21.58;;
56116;SDS011;41989;45.356;20.392;2024-03-08T12:05:17;29.20;;;19.52;;
56116;SDS011;41989;45.356;20.392;2024-03-08T12:07:55;32.42;;;20.15;;
56116;SDS011;41989;45.356;20.392;2024-03-08T12:10:21;29.25;;;18.83;;
56116;SDS011;41989;45.356;20.392;2024-03-08T12:12:48;27.58;;;18.63;;
56116;SDS011;41989;45.356;20.392;2024-03-08T12:15:16;30.52;;;19.67;;
56116;SDS011;41989;45.356;20.392;2024-03-08T12:17:43;28.95;;;20.80;;
56116;SDS011;41989;45.356;20.392;2024-03-08T12:20:34;26.98;;;19.42;;
56116;SDS011;41989;45.356;20.392;2024-03-08T12:22:59;26.73;;;18.17;;
56116;SDS011;41989;45.356;20.392;2024-03-08T12:25:26;24.05;;;18.77;;
56116;SDS011;41989;45.356;20.392;2024-03-08T12:27:52;30.33;;;19.60;;
56116;SDS011;41989;45.356;20.392;2024-03-08T12:30:22;27.13;;;18.80;;
56116;SDS011;41989;45.356;20.392;2024-03-08T12:32:58;28.40;;;20.95;;
56116;SDS011;41989;45.356;20.392;2024-03-08T12:35:27;27.67;;;19.33;;
56116;SDS011;41989;45.356;20.392;2024-03-08T12:37:55;27.27;;;18.63;;
56116;SDS011;41989;45.356;20.392;2024-03-08T12:40:25;29.92;;;19.77;;
56116;SDS011;41989;45.356;20.392;2024-03-08T12:42:53;32.88;;;20.63;;
56116;SDS011;41989;45.356;20.392;2024-03-08T12:45:22;27.13;;;18.83;;
56116;SDS011;41989;45.356;20.392;2024-03-08T12:47:51;30.00;;;19.95;;
56116;SDS011;41989;45.356;20.392;2024-03-08T12:50:18;25.83;;;17.65;;
56116;SDS011;41989;45.356;20.392;2024-03-08T12:52:44;29.73;;;19.48;;
56116;SDS011;41989;45.356;20.392;2024-03-08T12:55:11;28.10;;;19.70;;
56116;SDS011;41989;45.356;20.392;2024-03-08T12:57:37;30.17;;;20.10;;
56116;SDS011;41989;45.356;20.392;2024-03-08T13:00:04;26.42;;;18.60;;
56116;SDS011;41989;45.356;20.392;2024-03-08T13:02:31;28.15;;;19.20;;
56116;SDS011;41989;45.356;20.392;2024-03-08T13:04:58;32.05;;;20.80;;
56116;SDS011;41989;45.356;20.392;2024-03-08T13:07:24;32.38;;;20.42;;
56116;SDS011;41989;45.356;20.392;2024-03-08T13:09:54;27.02;;;18.20;;
56116;SDS011;41989;45.356;20.392;2024-03-08T13:12:23;31.30;;;20.17;;
56116;SDS011;41989;45.356;20.392;2024-03-08T13:14:49;29.45;;;20.95;;
56116;SDS011;41989;45.356;20.392;2024-03-08T13:17:15;25.33;;;17.83;;
56116;SDS011;41989;45.356;20.392;2024-03-08T13:19:43;27.05;;;19.63;;
56116;SDS011;41989;45.356;20.392;2024-03-08T13:22:10;52.70;;;33.33;;
56116;SDS011;41989;45.356;20.392;2024-03-08T13:24:44;46.97;;;30.48;;
56116;SDS011;41989;45.356;20.392;2024-03-08T13:27:11;35.35;;;22.23;;
56116;SDS011;41989;45.356;20.392;2024-03-08T13:29:49;34.50;;;22.08;;
56116;SDS011;41989;45.356;20.392;2024-03-08T13:32:16;35.42;;;22.60;;
56116;SDS011;41989;45.356;20.392;2024-03-08T13:34:43;33.92;;;21.27;;
56116;SDS011;41989;45.356;20.392;2024-03-08T13:37:16;35.58;;;23.27;;
56116;SDS011;41989;45.356;20.392;2024-03-08T13:39:42;32.75;;;21.45;;
56116;SDS011;41989;45.356;20.392;2024-03-08T13:42:14;30.00;;;19.40;;
56116;SDS011;41989;45.356;20.392;2024-03-08T13:44:45;29.92;;;20.02;;
56116;SDS011;41989;45.356;20.392;2024-03-08T13:47:15;38.25;;;24.02;;
56116;SDS011;41989;45.356;20.392;2024-03-08T13:49:42;27.90;;;19.92;;
56116;SDS011;41989;45.356;20.392;2024-03-08T13:52:09;31.20;;;19.88;;
56116;SDS011;41989;45.356;20.392;2024-03-08T13:54:35;32.97;;;20.73;;
56116;SDS011;41989;45.356;20.392;2024-03-08T13:57:03;33.63;;;22.27;;
56116;SDS011;41989;45.356;20.392;2024-03-08T13:59:30;29.02;;;20.25;;
56116;SDS011;41989;45.356;20.392;2024-03-08T14:01:58;35.50;;;23.38;;
56116;SDS011;41989;45.356;20.392;2024-03-08T14:04:26;32.05;;;21.65;;
56116;SDS011;41989;45.356;20.392;2024-03-08T14:06:53;32.22;;;21.77;;
56116;SDS011;41989;45.356;20.392;2024-03-08T14:09:26;32.03;;;22.02;;
56116;SDS011;41989;45.356;20.392;2024-03-08T14:11:54;32.92;;;22.35;;
56116;SDS011;41989;45.356;20.392;2024-03-08T14:14:20;31.90;;;21.85;;
56116;SDS011;41989;45.356;20.392;2024-03-08T14:16:48;29.88;;;20.52;;
56116;SDS011;41989;45.356;20.392;2024-03-08T14:19:18;40.40;;;24.75;;
56116;SDS011;41989;45.356;20.392;2024-03-08T14:21:44;37.53;;;23.17;;